N622KD KMNI-KHXD
Flight info
| Callsign | N622KD |
|---|---|
| Flight time | 0h 25m |
| Altitude | 16000 |
| Route | ADOMS |
| Aircraft | PC12/L-SDFGRWY/S |
Departure
| Time | 2026-04-22 22:20 |
|---|---|
| Airport | Santee Cooper Regional Airport (KMNI) |
Arrival
| Time | 2026-04-22 22:45 |
|---|---|
| Airport | Hilton Head Airport (KHXD) |
| Time | Latitude | Longitude | Altitude | Speed | Heading |
|---|---|---|---|---|---|
| 2026-04-22 22:10 | 33.58813 | -80.20716 | 102 ft | 0 kts | 174° |
| 2026-04-22 22:17 | 33.58817 | -80.20725 | 102 ft | 6 kts | 330° |
| 2026-04-22 22:17 | 33.58842 | -80.20772 | 103 ft | 8 kts | 349° |
| 2026-04-22 22:17 | 33.58943 | -80.20749 | 106 ft | 20 kts | 12° |
| 2026-04-22 22:18 | 33.59087 | -80.20712 | 108 ft | 18 kts | 11° |
| 2026-04-22 22:18 | 33.59167 | -80.20692 | 109 ft | 0 kts | 357° |
| 2026-04-22 22:19 | 33.59168 | -80.20692 | 109 ft | 2 kts | 355° |
| 2026-04-22 22:19 | 33.59186 | -80.20734 | 110 ft | 4 kts | 272° |
| 2026-04-22 22:19 | 33.59082 | -80.20772 | 107 ft | 41 kts | 192° |
| 2026-04-22 22:20 | 33.58592 | -80.20896 | 126 ft | 95 kts | 191° |
| 2026-04-22 22:20 | 33.57876 | -80.21091 | 503 ft | 116 kts | 193° |
| 2026-04-22 22:20 | 33.57034 | -80.21376 | 1134 ft | 122 kts | 205° |
| 2026-04-22 22:20 | 33.56229 | -80.21800 | 1780 ft | 125 kts | 200° |
| 2026-04-22 22:21 | 33.55350 | -80.22092 | 2417 ft | 134 kts | 195° |
| 2026-04-22 22:21 | 33.54424 | -80.22321 | 3151 ft | 135 kts | 193° |
| 2026-04-22 22:21 | 33.53529 | -80.22659 | 3802 ft | 139 kts | 201° |
| 2026-04-22 22:21 | 33.52597 | -80.23033 | 4552 ft | 140 kts | 199° |
| 2026-04-22 22:22 | 33.51667 | -80.23363 | 5343 ft | 141 kts | 198° |
| 2026-04-22 22:22 | 33.50715 | -80.23695 | 6161 ft | 143 kts | 198° |
| 2026-04-22 22:22 | 33.49736 | -80.24035 | 6897 ft | 148 kts | 201° |
| 2026-04-22 22:22 | 33.48744 | -80.24379 | 7670 ft | 150 kts | 201° |
| 2026-04-22 22:23 | 33.47739 | -80.24730 | 8466 ft | 151 kts | 200° |
| 2026-04-22 22:23 | 33.46730 | -80.25081 | 9220 ft | 154 kts | 200° |
| 2026-04-22 22:23 | 33.45689 | -80.25443 | 10029 ft | 156 kts | 201° |
| 2026-04-22 22:23 | 33.44637 | -80.25809 | 10773 ft | 158 kts | 201° |
| 2026-04-22 22:24 | 33.43570 | -80.26180 | 11530 ft | 160 kts | 201° |
| 2026-04-22 22:24 | 33.42498 | -80.26554 | 12174 ft | 170 kts | 201° |
| 2026-04-22 22:24 | 33.41285 | -80.26983 | 12641 ft | 189 kts | 200° |
| 2026-04-22 22:24 | 33.40021 | -80.27419 | 13404 ft | 189 kts | 200° |
| 2026-04-22 22:25 | 33.38742 | -80.27860 | 14117 ft | 192 kts | 200° |
| 2026-04-22 22:25 | 33.37440 | -80.28312 | 14747 ft | 196 kts | 200° |
| 2026-04-22 22:25 | 33.36120 | -80.28772 | 15375 ft | 199 kts | 200° |
| 2026-04-22 22:25 | 33.34760 | -80.29244 | 15883 ft | 211 kts | 200° |
| 2026-04-22 22:26 | 33.33284 | -80.29760 | 16006 ft | 228 kts | 200° |
| 2026-04-22 22:26 | 33.31716 | -80.30305 | 16009 ft | 243 kts | 199° |
| 2026-04-22 22:26 | 33.30064 | -80.30876 | 16010 ft | 255 kts | 199° |
| 2026-04-22 22:26 | 33.28342 | -80.31471 | 16014 ft | 258 kts | 199° |
| 2026-04-22 22:27 | 33.26620 | -80.32067 | 16010 ft | 257 kts | 198° |
| 2026-04-22 22:27 | 33.24902 | -80.32661 | 16009 ft | 257 kts | 198° |
| 2026-04-22 22:27 | 33.23140 | -80.33272 | 16014 ft | 267 kts | 199° |
| 2026-04-22 22:27 | 33.21337 | -80.33897 | 16010 ft | 272 kts | 199° |
| 2026-04-22 22:28 | 33.19532 | -80.34520 | 16012 ft | 274 kts | 198° |
| 2026-04-22 22:28 | 33.17691 | -80.35154 | 16013 ft | 275 kts | 199° |
| 2026-04-22 22:28 | 33.15842 | -80.35794 | 16011 ft | 276 kts | 199° |
| 2026-04-22 22:28 | 33.13995 | -80.36433 | 16010 ft | 276 kts | 198° |
| 2026-04-22 22:29 | 33.12170 | -80.37063 | 16008 ft | 276 kts | 198° |
| 2026-04-22 22:29 | 33.10325 | -80.37698 | 16009 ft | 276 kts | 199° |
| 2026-04-22 22:29 | 33.08483 | -80.38334 | 16009 ft | 276 kts | 198° |
| 2026-04-22 22:29 | 33.06638 | -80.38971 | 16009 ft | 276 kts | 198° |
| 2026-04-22 22:30 | 33.04796 | -80.39605 | 16007 ft | 276 kts | 199° |
| 2026-04-22 22:30 | 33.02952 | -80.40240 | 16018 ft | 276 kts | 198° |
| 2026-04-22 22:30 | 33.01108 | -80.40874 | 16017 ft | 276 kts | 198° |
| 2026-04-22 22:30 | 32.99264 | -80.41509 | 16023 ft | 276 kts | 199° |
| 2026-04-22 22:31 | 32.97410 | -80.42147 | 16026 ft | 276 kts | 199° |
| 2026-04-22 22:31 | 32.95569 | -80.42780 | 16027 ft | 276 kts | 198° |
| 2026-04-22 22:31 | 32.93725 | -80.43414 | 16024 ft | 276 kts | 198° |
| 2026-04-22 22:31 | 32.91881 | -80.44047 | 16025 ft | 276 kts | 199° |
| 2026-04-22 22:32 | 32.90058 | -80.44674 | 16024 ft | 276 kts | 198° |
| 2026-04-22 22:32 | 32.88214 | -80.45307 | 16027 ft | 276 kts | 198° |
| 2026-04-22 22:32 | 32.86369 | -80.45938 | 16026 ft | 276 kts | 199° |
| 2026-04-22 22:32 | 32.84524 | -80.46571 | 16027 ft | 276 kts | 199° |
| 2026-04-22 22:33 | 32.82646 | -80.47217 | 15768 ft | 281 kts | 198° |
| 2026-04-22 22:33 | 32.80771 | -80.47858 | 15499 ft | 280 kts | 199° |
| 2026-04-22 22:33 | 32.78907 | -80.48495 | 15153 ft | 276 kts | 199° |
| 2026-04-22 22:33 | 32.77093 | -80.49116 | 14808 ft | 270 kts | 198° |
| 2026-04-22 22:34 | 32.75295 | -80.49732 | 14452 ft | 269 kts | 199° |
| 2026-04-22 22:34 | 32.73506 | -80.50345 | 14094 ft | 266 kts | 198° |
| 2026-04-22 22:34 | 32.71757 | -80.50941 | 13768 ft | 262 kts | 198° |
| 2026-04-22 22:34 | 32.69967 | -80.51409 | 13387 ft | 264 kts | 193° |
| 2026-04-22 22:35 | 32.68158 | -80.51835 | 13040 ft | 263 kts | 194° |
| 2026-04-22 22:35 | 32.66380 | -80.52266 | 12699 ft | 260 kts | 195° |
| 2026-04-22 22:35 | 32.64606 | -80.52702 | 12368 ft | 260 kts | 194° |
| 2026-04-22 22:35 | 32.62834 | -80.53133 | 12034 ft | 260 kts | 194° |
| 2026-04-22 22:36 | 32.61065 | -80.53560 | 11688 ft | 257 kts | 194° |
| 2026-04-22 22:36 | 32.59317 | -80.53983 | 11355 ft | 255 kts | 194° |
| 2026-04-22 22:36 | 32.57600 | -80.54402 | 11007 ft | 256 kts | 194° |
| 2026-04-22 22:36 | 32.55840 | -80.54831 | 10653 ft | 255 kts | 194° |
| 2026-04-22 22:37 | 32.54152 | -80.55239 | 10319 ft | 242 kts | 194° |
| 2026-04-22 22:37 | 32.52570 | -80.55619 | 9971 ft | 221 kts | 194° |
| 2026-04-22 22:37 | 32.51087 | -80.55980 | 9645 ft | 216 kts | 194° |
| 2026-04-22 22:37 | 32.49627 | -80.56336 | 9355 ft | 213 kts | 194° |
| 2026-04-22 22:38 | 32.48176 | -80.56688 | 9042 ft | 212 kts | 193° |
| 2026-04-22 22:38 | 32.46736 | -80.57037 | 8787 ft | 212 kts | 194° |
| 2026-04-22 22:38 | 32.45291 | -80.57387 | 8523 ft | 212 kts | 194° |
| 2026-04-22 22:38 | 32.43852 | -80.57734 | 8231 ft | 208 kts | 195° |
| 2026-04-22 22:39 | 32.42513 | -80.58036 | 7996 ft | 189 kts | 201° |
| 2026-04-22 22:39 | 32.41374 | -80.58724 | 7617 ft | 184 kts | 212° |
| 2026-04-22 22:39 | 32.40285 | -80.59465 | 6890 ft | 178 kts | 210° |
| 2026-04-22 22:39 | 32.39214 | -80.60112 | 6180 ft | 168 kts | 209° |
| 2026-04-22 22:40 | 32.38175 | -80.60704 | 5450 ft | 166 kts | 207° |
| 2026-04-22 22:40 | 32.37118 | -80.61309 | 4719 ft | 170 kts | 206° |
| 2026-04-22 22:40 | 32.36054 | -80.61918 | 4019 ft | 169 kts | 206° |
| 2026-04-22 22:40 | 32.35019 | -80.62512 | 3458 ft | 161 kts | 206° |
| 2026-04-22 22:41 | 32.34068 | -80.63056 | 2986 ft | 136 kts | 207° |
| 2026-04-22 22:41 | 32.33294 | -80.63501 | 2468 ft | 115 kts | 206° |
| 2026-04-22 22:41 | 32.32611 | -80.63894 | 2120 ft | 104 kts | 204° |
| 2026-04-22 22:41 | 32.31963 | -80.64261 | 2031 ft | 110 kts | 203° |
| 2026-04-22 22:42 | 32.31277 | -80.64654 | 1879 ft | 104 kts | 205° |
| 2026-04-22 22:42 | 32.30643 | -80.65018 | 1738 ft | 101 kts | 205° |
| 2026-04-22 22:42 | 32.30024 | -80.65374 | 1628 ft | 99 kts | 202° |
| 2026-04-22 22:42 | 32.29384 | -80.65734 | 1479 ft | 102 kts | 202° |
| 2026-04-22 22:43 | 32.28729 | -80.66105 | 1326 ft | 102 kts | 205° |
| 2026-04-22 22:43 | 32.28112 | -80.66482 | 1209 ft | 100 kts | 204° |
| 2026-04-22 22:43 | 32.27505 | -80.66871 | 1066 ft | 99 kts | 205° |
| 2026-04-22 22:43 | 32.26901 | -80.67255 | 914 ft | 100 kts | 206° |
| 2026-04-22 22:44 | 32.26275 | -80.67582 | 756 ft | 98 kts | 202° |
| 2026-04-22 22:44 | 32.25645 | -80.67910 | 601 ft | 98 kts | 202° |
| 2026-04-22 22:44 | 32.25244 | -80.68138 | 553 ft | 95 kts | 204° |
| 2026-04-22 22:44 | 32.24653 | -80.68468 | 421 ft | 92 kts | 206° |
| 2026-04-22 22:45 | 32.24079 | -80.68802 | 293 ft | 99 kts | 204° |
| 2026-04-22 22:45 | 32.23513 | -80.69135 | 154 ft | 82 kts | 207° |
| 2026-04-22 22:45 | 32.22980 | -80.69433 | 31 ft | 85 kts | 206° |
| 2026-04-22 22:45 | 32.22528 | -80.69695 | 28 ft | 49 kts | 206° |
| 2026-04-22 22:46 | 32.22358 | -80.69792 | 27 ft | 17 kts | 204° |
| 2026-04-22 22:46 | 32.22303 | -80.69725 | 28 ft | 3 kts | 106° |
| 2026-04-22 22:47 | 32.22309 | -80.69681 | 27 ft | 14 kts | 72° |
| 2026-04-22 22:47 | 32.22325 | -80.69648 | 27 ft | 1 kts | 358° |
| 2026-04-22 22:47 | 32.22329 | -80.69652 | 27 ft | 0 kts | 300° |